GMML

Hassan I Airport

El Aaiún, Western Sahara
METAR GMML 170900Z 13007KT 8000 NSC 14/M02 Q1025 NOSIG
Observed Flight Rules
Dec-17 @ 09:00 UTC (3 hours ago) Marginal Visual Flight Rules
Wind Visibility Clouds
130° at 7 knots 7,998 meters
  • Clear skies
Temperatures Readings
Current 14°C / 57°F
Dewpoint -2°C / 28°F
Humidity 33%
Altimeter 30.27" Hg
Pressure 1025 hPa
Elevation 6
METAR GMML 170900Z 13007KT 8000 NSC 14/M02 Q1025 NOSIG
Observed Flight Rules
Dec-17 @ 09:00 UTC
(3 hours ago)
MVFR
Wind Visibility
130° at 7 knots 7,998 meters
Clouds
  • Clear skies
Temperature Dewpoint
14°C / 57°F -2°C / 28°F
Humidity Altimeter Pressure
33% 30.27" Hg 1025 hPa